createdAt,value
2019-05-19T00:01:45.919Z,13.37
2019-05-19T00:04:14.927Z,13.36
2019-05-19T00:06:43.892Z,13.44
2019-05-19T00:09:12.741Z,13.29
2019-05-19T00:11:41.527Z,13.30
2019-05-19T00:14:10.456Z,13.16
2019-05-19T00:16:39.821Z,13.24
2019-05-19T00:19:08.862Z,13.24
2019-05-19T00:21:37.664Z,13.27
2019-05-19T00:24:06.640Z,13.29
2019-05-19T00:26:35.496Z,13.29
2019-05-19T00:29:04.524Z,13.29
2019-05-19T00:31:34.255Z,13.25
2019-05-19T00:34:03.141Z,13.34
2019-05-19T00:36:32.094Z,13.27
2019-05-19T00:39:00.933Z,13.24
2019-05-19T00:41:29.835Z,13.25
2019-05-19T00:43:58.822Z,13.31
2019-05-19T00:46:27.802Z,13.24
2019-05-19T00:48:56.689Z,13.16
2019-05-19T00:51:25.835Z,13.16
2019-05-19T00:53:54.887Z,13.07
2019-05-19T00:56:25.929Z,13.05
2019-05-19T00:58:56.841Z,13.06
2019-05-19T01:01:25.800Z,13.03
2019-05-19T01:03:54.571Z,12.98
2019-05-19T01:06:23.374Z,12.99
2019-05-19T01:08:52.326Z,12.93
2019-05-19T01:11:21.216Z,12.90
2019-05-19T01:13:50.155Z,12.89
2019-05-19T01:16:19.148Z,12.85
2019-05-19T01:18:48.001Z,12.82
2019-05-19T01:21:17.268Z,12.79
2019-05-19T01:23:46.183Z,12.66
2019-05-19T01:26:14.992Z,12.55
2019-05-19T01:28:43.900Z,12.53
2019-05-19T01:31:12.925Z,12.48
2019-05-19T01:33:42.355Z,12.43
2019-05-19T01:36:11.324Z,12.44
2019-05-19T01:38:40.224Z,12.39
2019-05-19T01:41:09.207Z,12.40
2019-05-19T01:43:38.193Z,12.33
2019-05-19T01:46:07.630Z,12.32
2019-05-19T01:48:36.446Z,12.27
2019-05-19T01:51:05.395Z,12.27
2019-05-19T01:53:34.304Z,12.24
2019-05-19T01:56:03.484Z,12.20
2019-05-19T01:58:32.383Z,12.22
2019-05-19T02:01:01.252Z,12.17
2019-05-19T02:03:30.152Z,12.14
2019-05-19T02:05:59.109Z,12.15
2019-05-19T02:08:27.985Z,12.16
2019-05-19T02:10:56.893Z,12.18
2019-05-19T02:13:25.780Z,12.22
2019-05-19T02:15:54.742Z,12.12
2019-05-19T02:18:23.750Z,12.09
2019-05-19T02:20:52.695Z,12.04
2019-05-19T02:23:21.725Z,11.96
2019-05-19T02:25:51.901Z,12.06
2019-05-19T02:28:20.736Z,12.10
2019-05-19T02:30:49.712Z,12.09
2019-05-19T02:33:18.543Z,12.15
2019-05-19T02:35:47.548Z,12.13
2019-05-19T02:38:16.440Z,12.08
2019-05-19T02:40:51.089Z,12.08
2019-05-19T02:43:22.658Z,12.09
2019-05-19T02:45:55.977Z,12.07
2019-05-19T02:48:26.754Z,12.05
2019-05-19T02:50:56.562Z,12.02
2019-05-19T02:53:25.919Z,12.02
2019-05-19T02:55:55.606Z,12.02
2019-05-19T02:58:25.564Z,12.04
2019-05-19T03:00:54.510Z,12.05
2019-05-19T03:03:23.450Z,12.04
2019-05-19T03:05:52.470Z,12.05
2019-05-19T03:08:21.378Z,12.09
2019-05-19T03:10:50.259Z,12.09
2019-05-19T03:13:19.158Z,12.02
2019-05-19T03:15:47.996Z,11.97
2019-05-19T03:18:16.953Z,11.93
2019-05-19T03:20:45.852Z,12.02
2019-05-19T03:23:14.869Z,12.02
2019-05-19T03:25:44.381Z,11.99
2019-05-19T03:28:13.464Z,11.94
2019-05-19T03:31:05.216Z,11.96
2019-05-19T03:33:36.374Z,11.97
2019-05-19T03:36:05.351Z,11.96
2019-05-19T03:38:34.386Z,11.93
2019-05-19T03:41:03.370Z,11.92
2019-05-19T03:43:32.175Z,11.93
2019-05-19T03:46:01.357Z,11.95
2019-05-19T03:48:30.302Z,11.93
2019-05-19T03:50:59.111Z,11.88
2019-05-19T03:53:28.004Z,12.01
2019-05-19T03:55:56.740Z,12.09
2019-05-19T03:58:25.945Z,12.15
2019-05-19T04:00:54.978Z,12.15
2019-05-19T04:03:23.944Z,12.20
2019-05-19T04:05:52.787Z,12.26
2019-05-19T04:08:21.713Z,12.27
2019-05-19T04:10:50.719Z,12.25
2019-05-19T04:13:19.561Z,12.32
2019-05-19T04:15:48.468Z,12.35
2019-05-19T04:18:17.325Z,12.35
2019-05-19T04:20:46.297Z,12.35
2019-05-19T04:23:15.156Z,12.36
2019-05-19T04:25:44.218Z,12.36
2019-05-19T04:28:13.122Z,12.38
2019-05-19T04:30:41.968Z,12.41
2019-05-19T04:33:11.709Z,12.44
2019-05-19T04:35:40.524Z,12.44
2019-05-19T04:38:09.361Z,12.40
2019-05-19T04:40:38.245Z,12.43
2019-05-19T04:43:07.261Z,12.45
2019-05-19T04:45:36.114Z,12.46
2019-05-19T04:48:09.172Z,12.49
2019-05-19T04:50:35.920Z,12.50
2019-05-19T04:53:04.880Z,12.52
2019-05-19T04:55:33.841Z,12.57
2019-05-19T04:58:02.760Z,12.56
2019-05-19T05:00:31.658Z,12.56
2019-05-19T05:03:00.401Z,12.67
2019-05-19T05:05:29.318Z,12.73
2019-05-19T05:07:58.106Z,12.81
2019-05-19T05:10:27.066Z,12.85
2019-05-19T05:12:55.958Z,12.90
2019-05-19T05:15:24.850Z,12.98
2019-05-19T05:17:53.635Z,13.15
2019-05-19T05:20:22.594Z,13.28
2019-05-19T05:22:51.587Z,13.42
2019-05-19T05:25:20.569Z,13.50
2019-05-19T05:27:49.490Z,13.66
2019-05-19T05:30:18.754Z,13.76
2019-05-19T05:32:47.623Z,13.91
2019-05-19T05:35:16.536Z,14.07
2019-05-19T05:37:45.540Z,14.20
2019-05-19T05:40:14.565Z,14.33
2019-05-19T05:42:43.357Z,14.41
2019-05-19T05:45:13.195Z,14.51
2019-05-19T05:47:42.094Z,14.54
2019-05-19T05:50:11.302Z,14.55
2019-05-19T05:52:40.168Z,14.30
2019-05-19T05:55:09.464Z,14.27
2019-05-19T05:57:38.439Z,14.25
2019-05-19T06:00:08.793Z,14.28
2019-05-19T06:02:37.668Z,14.37
2019-05-19T06:05:07.328Z,14.25
2019-05-19T06:07:36.320Z,14.20
2019-05-19T06:10:06.128Z,14.31
2019-05-19T06:12:35.166Z,14.35
2019-05-19T06:15:04.763Z,14.53
2019-05-19T06:17:33.688Z,14.79
2019-05-19T06:20:03.359Z,15.01
2019-05-19T06:22:32.666Z,15.37
2019-05-19T06:25:01.715Z,15.70
2019-05-19T06:27:30.825Z,15.82
2019-05-19T06:29:59.860Z,15.75
2019-05-19T06:32:34.626Z,15.83
2019-05-19T06:35:03.685Z,15.48
2019-05-19T06:37:32.723Z,15.36
2019-05-19T06:40:01.752Z,15.44
2019-05-19T06:42:30.661Z,15.54
2019-05-19T06:44:59.733Z,15.18
2019-05-19T06:47:28.628Z,15.27
2019-05-19T06:49:57.628Z,15.57
2019-05-19T06:52:26.801Z,15.91
2019-05-19T06:54:55.781Z,16.11
2019-05-19T06:57:24.771Z,16.23
2019-05-19T06:59:53.720Z,16.50
2019-05-19T07:02:22.651Z,16.82
2019-05-19T07:04:51.905Z,17.19
2019-05-19T07:07:20.897Z,17.67
2019-05-19T07:09:57.889Z,17.79
2019-05-19T07:12:20.319Z,18.13
2019-05-19T07:14:49.406Z,18.30
2019-05-19T07:17:18.379Z,18.55
2019-05-19T07:19:47.325Z,18.94
2019-05-19T07:22:16.388Z,19.09
2019-05-19T07:24:45.230Z,19.38
2019-05-19T07:27:14.041Z,19.30
2019-05-19T07:29:42.991Z,19.46
2019-05-19T07:32:11.867Z,19.99
2019-05-19T07:34:40.824Z,20.36
2019-05-19T07:37:09.679Z,20.76
2019-05-19T07:39:38.746Z,20.72
2019-05-19T07:42:07.622Z,21.00
2019-05-19T07:44:36.657Z,21.88
2019-05-19T07:47:05.623Z,21.83
2019-05-19T07:49:34.647Z,21.16
2019-05-19T07:52:03.593Z,21.46
2019-05-19T07:54:32.605Z,21.22
2019-05-19T07:57:01.686Z,21.88
2019-05-19T07:59:30.684Z,21.79
2019-05-19T08:01:59.638Z,22.14
2019-05-19T08:04:28.567Z,23.90
2019-05-19T08:06:57.559Z,24.39
2019-05-19T08:09:26.582Z,25.28
2019-05-19T08:11:55.652Z,24.72
2019-05-19T08:14:24.649Z,24.23
2019-05-19T08:16:53.538Z,23.95
2019-05-19T08:19:22.594Z,23.74
2019-05-19T08:21:51.698Z,22.73
2019-05-19T08:24:20.493Z,21.83
2019-05-19T08:26:49.412Z,21.61
2019-05-19T08:29:18.384Z,21.55
2019-05-19T08:31:47.321Z,21.09
2019-05-19T08:34:16.284Z,20.95
2019-05-19T08:36:45.375Z,21.10
2019-05-19T08:39:14.679Z,21.14
2019-05-19T08:41:43.598Z,21.30
2019-05-19T08:44:12.819Z,21.00
2019-05-19T08:46:41.762Z,21.26
2019-05-19T08:49:10.747Z,21.76
2019-05-19T08:51:39.636Z,21.78
2019-05-19T08:54:15.064Z,21.77
2019-05-19T08:56:39.398Z,21.99
2019-05-19T08:59:08.440Z,22.27
2019-05-19T09:01:37.359Z,22.67
2019-05-19T09:04:06.382Z,22.82
2019-05-19T09:06:35.295Z,22.52
2019-05-19T09:09:05.875Z,22.46
2019-05-19T09:11:34.849Z,22.75
2019-05-19T09:14:03.769Z,22.85
2019-05-19T09:16:34.760Z,21.93
2019-05-19T09:19:03.744Z,21.93
2019-05-19T09:21:32.656Z,21.92
2019-05-19T09:24:01.562Z,21.82
2019-05-19T09:26:30.434Z,21.35
2019-05-19T09:29:00.195Z,21.56
2019-05-19T09:31:29.187Z,21.74
2019-05-19T09:33:58.099Z,21.66
2019-05-19T09:36:27.610Z,21.40
2019-05-19T09:38:56.615Z,21.36
2019-05-19T09:41:26.195Z,21.36
2019-05-19T09:43:55.186Z,21.70
2019-05-19T09:46:24.074Z,21.94
2019-05-19T09:49:12.391Z,22.24
2019-05-19T09:51:41.284Z,22.27
2019-05-19T09:54:42.742Z,22.23
2019-05-19T09:57:01.596Z,22.42
2019-05-19T09:59:30.571Z,22.47
2019-05-19T10:01:59.533Z,22.48
2019-05-19T10:04:28.377Z,22.42
2019-05-19T10:06:57.404Z,22.10
2019-05-19T10:09:58.679Z,22.44
2019-05-19T10:12:28.110Z,22.19
2019-05-19T10:14:57.105Z,22.70
2019-05-19T10:17:26.135Z,22.91
2019-05-19T10:19:55.105Z,23.21
2019-05-19T10:22:24.271Z,23.28
2019-05-19T10:25:10.516Z,23.25
2019-05-19T10:27:24.530Z,23.41
2019-05-19T10:29:53.531Z,23.33
2019-05-19T10:32:22.569Z,23.60
2019-05-19T10:34:51.521Z,23.40
2019-05-19T10:37:20.350Z,23.76
2019-05-19T10:39:49.373Z,23.75
2019-05-19T10:42:18.533Z,23.74
2019-05-19T10:44:47.359Z,23.39
2019-05-19T10:47:16.296Z,23.15
2019-05-19T10:49:45.086Z,23.02
2019-05-19T10:52:13.984Z,22.72
2019-05-19T10:54:42.891Z,22.52
2019-05-19T10:57:11.914Z,22.54
2019-05-19T10:59:40.843Z,22.90
2019-05-19T11:02:10.022Z,23.68
2019-05-19T11:04:38.897Z,23.68
2019-05-19T11:07:07.921Z,23.79
2019-05-19T11:09:36.888Z,24.20
2019-05-19T11:12:05.875Z,24.57
2019-05-19T11:14:34.822Z,24.71
2019-05-19T11:17:03.800Z,24.29
2019-05-19T11:19:32.757Z,24.14
2019-05-19T11:22:01.604Z,24.97
2019-05-19T11:24:30.521Z,24.96
2019-05-19T11:26:59.511Z,24.64
2019-05-19T11:29:28.479Z,24.01
2019-05-19T11:31:57.314Z,23.81
2019-05-19T11:34:26.336Z,23.80
2019-05-19T11:36:55.255Z,23.55
2019-05-19T11:39:24.475Z,23.60
2019-05-19T11:41:53.444Z,23.27
2019-05-19T11:44:22.367Z,23.33
2019-05-19T11:46:51.435Z,23.72
2019-05-19T11:49:20.368Z,23.85
2019-05-19T11:51:49.464Z,23.89
2019-05-19T11:54:18.384Z,23.94
2019-05-19T11:56:47.423Z,24.10
2019-05-19T11:59:16.285Z,23.97
2019-05-19T12:01:45.183Z,24.19
2019-05-19T12:04:14.336Z,24.20
2019-05-19T12:06:43.113Z,25.01
2019-05-19T12:09:12.261Z,25.28
2019-05-19T12:11:41.025Z,25.81
2019-05-19T12:14:09.948Z,25.53
2019-05-19T12:16:38.806Z,25.71
2019-05-19T12:19:07.752Z,25.89
2019-05-19T12:21:36.662Z,25.67
2019-05-19T12:24:05.544Z,25.30
2019-05-19T12:26:34.994Z,25.03
2019-05-19T12:29:04.162Z,25.16
2019-05-19T12:31:33.018Z,25.09
2019-05-19T12:34:01.764Z,24.97
2019-05-19T12:36:31.673Z,25.23
2019-05-19T12:39:00.563Z,24.78
2019-05-19T12:41:29.440Z,24.62
2019-05-19T12:43:58.406Z,24.92
2019-05-19T12:46:27.355Z,24.85
2019-05-19T12:48:56.181Z,24.49
2019-05-19T12:51:26.888Z,24.30
2019-05-19T12:53:55.668Z,24.11
2019-05-19T12:56:38.770Z,24.42
2019-05-19T12:58:55.158Z,24.15
2019-05-19T13:01:24.032Z,24.23
2019-05-19T13:03:52.888Z,24.88
2019-05-19T13:06:21.869Z,25.31
2019-05-19T13:08:50.786Z,25.39
2019-05-19T13:11:19.628Z,25.78
2019-05-19T13:13:48.543Z,26.38
2019-05-19T13:16:17.324Z,26.56
2019-05-19T13:18:46.301Z,26.42
2019-05-19T13:21:15.178Z,26.74
2019-05-19T13:23:44.146Z,27.56
2019-05-19T13:26:13.070Z,28.14
2019-05-19T13:28:42.039Z,27.64
2019-05-19T13:31:10.879Z,27.88
2019-05-19T13:33:39.836Z,27.92
2019-05-19T13:36:08.855Z,27.34
2019-05-19T13:38:37.847Z,28.11
2019-05-19T13:41:06.835Z,28.71
2019-05-19T13:43:35.741Z,29.10
2019-05-19T13:46:04.909Z,28.73
2019-05-19T13:48:33.900Z,27.72
2019-05-19T13:51:02.858Z,27.10
2019-05-19T13:53:32.120Z,26.57
2019-05-19T13:56:02.361Z,26.03
2019-05-19T13:58:31.289Z,25.59
2019-05-19T14:01:00.175Z,25.25
2019-05-19T14:03:29.136Z,26.04
2019-05-19T14:05:59.195Z,26.06
2019-05-19T14:08:28.165Z,26.29
2019-05-19T14:10:57.350Z,26.01
2019-05-19T14:13:26.318Z,26.28
2019-05-19T14:15:55.184Z,27.08
2019-05-19T14:18:24.047Z,28.47
2019-05-19T14:20:53.081Z,29.58
2019-05-19T14:23:22.016Z,30.10
2019-05-19T14:25:50.975Z,30.91
2019-05-19T14:28:19.834Z,31.65
2019-05-19T14:30:48.684Z,32.11
2019-05-19T14:33:17.761Z,32.11
2019-05-19T14:35:46.553Z,32.12
2019-05-19T14:38:22.525Z,32.91
2019-05-19T14:40:53.024Z,32.87
2019-05-19T14:43:23.377Z,32.99
2019-05-19T14:45:52.359Z,32.47
2019-05-19T14:48:21.211Z,31.24
2019-05-19T14:50:50.261Z,30.40
2019-05-19T14:53:19.191Z,29.41
2019-05-19T14:55:48.061Z,28.31
2019-05-19T14:58:16.990Z,27.72
2019-05-19T15:00:47.083Z,27.05
2019-05-19T15:03:16.001Z,27.07
2019-05-19T15:05:44.887Z,28.15
2019-05-19T15:08:13.779Z,29.18
2019-05-19T15:10:42.665Z,29.91
2019-05-19T15:13:11.671Z,30.22
2019-05-19T15:15:40.522Z,29.28
2019-05-19T15:18:09.471Z,27.93
2019-05-19T15:20:38.487Z,27.84
2019-05-19T15:23:07.402Z,28.62
2019-05-19T15:25:36.160Z,28.96
2019-05-19T15:28:05.686Z,29.12
2019-05-19T15:30:34.759Z,28.73
2019-05-19T15:33:05.526Z,28.71
2019-05-19T15:35:34.427Z,29.52
2019-05-19T15:38:03.309Z,30.20
2019-05-19T15:40:32.191Z,29.58
2019-05-19T15:43:00.957Z,28.58
2019-05-19T15:45:29.899Z,28.69
2019-05-19T15:47:58.763Z,28.05
2019-05-19T15:50:27.576Z,27.17
2019-05-19T15:52:56.589Z,26.52
2019-05-19T15:55:25.566Z,25.49
2019-05-19T15:57:54.538Z,24.86
2019-05-19T16:00:23.525Z,24.42
2019-05-19T16:02:52.425Z,23.89
2019-05-19T16:05:21.531Z,23.32
2019-05-19T16:07:50.465Z,22.79
2019-05-19T16:10:19.387Z,22.43
2019-05-19T16:12:48.277Z,21.68
2019-05-19T16:15:18.741Z,21.49
2019-05-19T16:17:47.663Z,21.61
2019-05-19T16:20:16.754Z,21.79
2019-05-19T16:22:45.784Z,22.17
2019-05-19T16:25:14.836Z,22.27
2019-05-19T16:27:43.813Z,23.28
2019-05-19T16:30:13.336Z,23.57
2019-05-19T16:32:42.184Z,24.47
2019-05-19T16:35:11.482Z,24.50
2019-05-19T16:37:40.369Z,25.29
2019-05-19T16:40:09.662Z,25.74
2019-05-19T16:42:38.632Z,25.34
2019-05-19T16:45:07.713Z,24.25
2019-05-19T16:47:36.682Z,25.20
2019-05-19T16:50:06.095Z,24.84
2019-05-19T16:52:35.021Z,24.97
2019-05-19T16:55:23.615Z,24.97
2019-05-19T16:57:52.602Z,24.67
2019-05-19T17:00:23.632Z,24.69
2019-05-19T17:02:52.550Z,25.14
2019-05-19T17:05:21.647Z,25.05
2019-05-19T17:07:50.607Z,25.39
2019-05-19T17:10:19.826Z,25.59
2019-05-19T17:12:48.615Z,26.37
2019-05-19T17:15:18.213Z,26.66
2019-05-19T17:17:47.477Z,27.14
2019-05-19T17:20:17.247Z,26.92
2019-05-19T17:22:46.374Z,26.33
2019-05-19T17:25:15.572Z,26.55
2019-05-19T17:27:44.527Z,26.44
2019-05-19T17:30:14.233Z,26.67
2019-05-19T17:32:43.092Z,27.06
2019-05-19T17:35:12.879Z,26.53
2019-05-19T17:37:41.719Z,26.27
2019-05-19T17:40:11.827Z,26.74
2019-05-19T17:42:42.672Z,27.51
2019-05-19T17:45:13.257Z,27.67
2019-05-19T17:47:42.219Z,27.34
2019-05-19T17:50:12.150Z,26.10
2019-05-19T17:52:41.157Z,25.30
2019-05-19T17:55:10.844Z,24.42
2019-05-19T17:57:40.434Z,24.17
2019-05-19T18:00:10.443Z,24.20
2019-05-19T18:02:39.848Z,24.14
2019-05-19T18:05:09.262Z,24.76
2019-05-19T18:07:38.793Z,24.76
2019-05-19T18:10:07.785Z,24.79
2019-05-19T18:12:37.137Z,24.49
2019-05-19T18:15:08.213Z,24.41
2019-05-19T18:17:37.526Z,24.50
2019-05-19T18:20:06.843Z,23.55
2019-05-19T18:22:36.253Z,22.48
2019-05-19T18:25:06.121Z,22.32
2019-05-19T18:27:35.371Z,22.31
2019-05-19T18:30:05.604Z,22.29
2019-05-19T18:32:35.467Z,22.49
2019-05-19T18:35:06.593Z,22.68
2019-05-19T18:37:35.779Z,22.51
2019-05-19T18:40:05.219Z,22.31
2019-05-19T18:42:34.034Z,22.42
2019-05-19T18:45:03.092Z,22.58
2019-05-19T18:47:32.025Z,22.15
2019-05-19T18:50:03.465Z,21.68
2019-05-19T18:52:33.004Z,21.35
2019-05-19T18:55:02.376Z,20.95
2019-05-19T18:57:31.545Z,20.75
2019-05-19T19:00:00.501Z,20.58
2019-05-19T19:02:29.559Z,20.40
2019-05-19T19:04:58.548Z,20.37
2019-05-19T19:07:45.293Z,20.30
2019-05-19T19:10:14.527Z,20.17
2019-05-19T19:12:43.331Z,20.08
2019-05-19T19:15:12.598Z,19.92
2019-05-19T19:17:41.825Z,19.77
2019-05-19T19:20:10.850Z,19.67
2019-05-19T19:22:40.055Z,19.50
2019-05-19T19:25:09.110Z,19.31
2019-05-19T19:27:38.122Z,19.34
2019-05-19T19:30:07.281Z,19.33
2019-05-19T19:32:36.154Z,19.28
2019-05-19T19:35:05.610Z,19.21
2019-05-19T19:37:34.521Z,19.14
2019-05-19T19:40:03.613Z,19.12
2019-05-19T19:42:32.535Z,19.06
2019-05-19T19:45:01.402Z,18.97
2019-05-19T19:47:30.420Z,18.84
2019-05-19T19:49:59.707Z,18.73
2019-05-19T19:52:28.649Z,18.67
2019-05-19T19:54:57.676Z,18.59
2019-05-19T19:57:26.572Z,18.50
2019-05-19T19:59:55.422Z,18.41
2019-05-19T20:02:24.314Z,18.38
2019-05-19T20:04:53.210Z,18.26
2019-05-19T20:07:22.055Z,18.21
2019-05-19T20:09:51.748Z,18.17
2019-05-19T20:12:21.847Z,18.10
2019-05-19T20:14:51.385Z,18.08
2019-05-19T20:17:20.695Z,18.06
2019-05-19T20:19:50.299Z,17.94
2019-05-19T20:22:19.823Z,17.80
2019-05-19T20:24:51.013Z,17.69
2019-05-19T20:27:20.250Z,17.60
2019-05-19T20:29:49.427Z,17.51
2019-05-19T20:32:19.047Z,17.47
2019-05-19T20:34:48.140Z,17.32
2019-05-19T20:37:17.075Z,17.22
2019-05-19T20:39:46.162Z,17.07
2019-05-19T20:42:15.666Z,16.93
2019-05-19T20:44:44.647Z,16.89
2019-05-19T20:47:13.660Z,16.92
2019-05-19T20:49:42.559Z,16.97
2019-05-19T20:52:11.624Z,16.92
2019-05-19T20:54:43.295Z,16.88
2019-05-19T20:57:13.568Z,16.81
2019-05-19T20:59:42.466Z,16.88
2019-05-19T21:02:11.451Z,16.73
2019-05-19T21:04:40.560Z,16.65
2019-05-19T21:07:09.642Z,16.59
2019-05-19T21:09:38.509Z,16.59
2019-05-19T21:12:07.453Z,16.49
2019-05-19T21:14:36.405Z,16.45
2019-05-19T21:17:05.522Z,16.44
2019-05-19T21:19:34.457Z,16.32
2019-05-19T21:22:03.427Z,16.30
2019-05-19T21:24:32.403Z,16.24
2019-05-19T21:27:01.255Z,16.15
2019-05-19T21:29:30.128Z,16.06
2019-05-19T21:31:58.966Z,15.97
2019-05-19T21:34:27.983Z,16.12
2019-05-19T21:36:56.852Z,15.93
2019-05-19T21:39:25.777Z,15.84
2019-05-19T21:41:54.726Z,15.80
2019-05-19T21:44:23.730Z,15.86
2019-05-19T21:46:52.596Z,15.97
2019-05-19T21:49:21.513Z,16.06
2019-05-19T21:51:50.408Z,16.40
2019-05-19T21:54:19.201Z,16.55
2019-05-19T21:56:48.152Z,16.54
2019-05-19T21:59:17.042Z,16.64
2019-05-19T22:01:46.013Z,16.64
2019-05-19T22:04:14.984Z,16.72
2019-05-19T22:06:47.603Z,16.68
2019-05-19T22:09:16.925Z,16.65
2019-05-19T22:11:45.872Z,16.51
2019-05-19T22:14:14.932Z,16.45
2019-05-19T22:16:43.926Z,16.42
2019-05-19T22:19:15.777Z,16.20
2019-05-19T22:21:43.437Z,16.28
2019-05-19T22:24:12.325Z,16.09
2019-05-19T22:26:41.301Z,16.31
2019-05-19T22:29:10.270Z,16.28
2019-05-19T22:31:39.219Z,16.23
2019-05-19T22:34:08.218Z,16.04
2019-05-19T22:36:37.161Z,15.89
2019-05-19T22:39:07.997Z,15.91
2019-05-19T22:41:36.909Z,16.09
2019-05-19T22:44:05.814Z,16.22
2019-05-19T22:46:34.627Z,16.09
2019-05-19T22:49:03.892Z,15.96
2019-05-19T22:51:32.713Z,15.63
2019-05-19T22:54:01.635Z,15.68
2019-05-19T22:56:30.577Z,15.70
2019-05-19T22:58:59.352Z,15.91
2019-05-19T23:01:28.326Z,15.90
2019-05-19T23:03:57.267Z,16.00
2019-05-19T23:06:26.605Z,16.08
2019-05-19T23:08:55.610Z,16.12
2019-05-19T23:11:24.545Z,16.03
2019-05-19T23:13:53.413Z,15.97
2019-05-19T23:16:22.458Z,16.02
2019-05-19T23:18:51.378Z,15.81
2019-05-19T23:21:20.195Z,15.82
2019-05-19T23:23:48.991Z,15.85
2019-05-19T23:26:18.082Z,15.76
2019-05-19T23:28:47.076Z,15.81
2019-05-19T23:31:15.958Z,15.72
2019-05-19T23:33:44.833Z,15.73
2019-05-19T23:36:13.801Z,15.75
2019-05-19T23:38:42.614Z,15.69
2019-05-19T23:41:11.405Z,15.66
2019-05-19T23:43:40.396Z,15.66
2019-05-19T23:46:09.364Z,15.64
2019-05-19T23:48:38.285Z,15.54
2019-05-19T23:51:07.187Z,15.50
2019-05-19T23:53:36.158Z,15.51
2019-05-19T23:56:05.769Z,15.58
2019-05-19T23:58:34.588Z,15.41
